Time;durP1;ratioP1;P1;durP2;ratioP2;P2;SDS_P1;SDS_P2;PMS_P1;PMS_P2;Temp;Humidity;BMP_temperature;BMP_pressure;BME280_temperature;BME280_humidity;BME280_pressure;Samples;Min_cycle;Max_cycle;Signal;HPM_P1;HPM_P2
2022/01/23 00:00:19;;;;;;;15.53;5.70;;;;;;;-0.27;78.83;101647.17;1631427;86;27532;-76
2022/01/23 00:02:40;;;;;;;11.65;6.05;;;;;;;-0.27;78.83;101650.66;1631394;87;25815;-76
2022/01/23 00:05:08;;;;;;;18.37;6.90;;;;;;;-0.26;78.82;101658.09;1632703;87;25859;-76
2022/01/23 00:07:34;;;;;;;15.53;4.85;;;;;;;-0.27;78.90;101650.66;1632325;87;25926;-76
2022/01/23 00:10:03;;;;;;;15.43;5.40;;;;;;;-0.24;79.05;101659.70;1632648;86;25867;-77
2022/01/23 00:12:34;;;;;;;17.30;5.17;;;;;;;-0.25;78.87;101661.95;1632015;87;28292;-76
2022/01/23 00:17:42;;;;;;;17.70;5.60;;;;;;;-0.25;78.94;101651.41;1632611;87;25808;-77
2022/01/23 00:20:14;;;;;;;16.80;6.10;;;;;;;-0.24;79.11;101661.48;1632794;86;26501;-76
2022/01/23 00:22:58;;;;;;;13.03;6.37;;;;;;;-0.24;79.08;101657.07;1632461;87;25819;-77
2022/01/23 00:30:55;;;;;;;15.88;5.45;;;;;;;-0.28;79.17;101654.22;1632629;86;25968;-76
2022/01/23 00:33:23;;;;;;;13.95;5.95;;;;;;;-0.27;79.31;101651.98;1632504;87;26560;-76
2022/01/23 00:35:51;;;;;;;12.15;5.47;;;;;;;-0.29;79.25;101653.86;1632737;87;26048;-76
2022/01/23 00:38:18;;;;;;;12.07;4.37;;;;;;;-0.29;79.37;101658.27;1632614;87;27640;-76
2022/01/23 00:40:47;;;;;;;15.20;5.47;;;;;;;-0.29;79.27;101652.54;1632376;86;25832;-76
2022/01/23 00:43:17;;;;;;;15.63;6.35;;;;;;;-0.27;79.32;101640.59;1632317;85;25510;-76
2022/01/23 00:45:53;;;;;;;9.77;4.80;;;;;;;-0.26;79.24;101647.11;1633195;87;25856;-76
2022/01/23 00:48:17;;;;;;;15.70;5.15;;;;;;;-0.27;79.17;101648.03;1632214;87;25833;-75
2022/01/23 00:50:45;;;;;;;10.53;4.65;;;;;;;-0.26;79.22;101654.15;1632630;86;27485;-76
2022/01/23 00:53:14;;;;;;;11.73;4.67;;;;;;;-0.29;79.19;101642.02;1632148;87;25785;-76
2022/01/23 00:55:44;;;;;;;11.53;5.10;;;;;;;-0.31;79.33;101632.50;1632826;85;26583;-76
2022/01/23 00:58:11;;;;;;;11.73;5.08;;;;;;;-0.34;79.28;101639.29;1632700;87;25789;-76
2022/01/23 01:00:38;;;;;;;10.90;4.65;;;;;;;-0.35;79.26;101634.95;1632845;86;25752;-76
2022/01/23 01:03:05;;;;;;;11.95;4.60;;;;;;;-0.37;79.36;101635.52;1632797;87;27500;-76
2022/01/23 01:05:32;;;;;;;17.73;5.60;;;;;;;-0.37;79.41;101631.56;1632691;87;25997;-76
2022/01/23 01:08:01;;;;;;;11.83;4.20;;;;;;;-0.36;79.41;101627.97;1632680;87;26101;-76
2022/01/23 01:10:46;;;;;;;12.35;4.42;;;;;;;-0.36;79.34;101626.20;1632816;86;25997;-76
2022/01/23 01:13:05;;;;;;;10.65;3.98;;;;;;;-0.35;79.44;101634.95;1631625;86;25791;-76
2022/01/23 01:15:41;;;;;;;12.10;5.37;;;;;;;-0.34;79.38;101647.19;1616730;87;27461;-76
2022/01/23 01:31:50;;;;;;;11.25;4.47;;;;;;;-0.39;79.31;101650.09;1632335;87;25878;-75
2022/01/23 01:34:20;;;;;;;7.95;4.03;;;;;;;-0.38;79.35;101650.91;1632042;87;26497;-76
2022/01/23 01:36:49;;;;;;;13.15;5.15;;;;;;;-0.39;79.21;101654.04;1631296;87;26644;-76
2022/01/23 01:39:20;;;;;;;14.18;4.72;;;;;;;-0.41;79.33;101655.92;1608292;86;25781;-76
2022/01/23 01:41:49;;;;;;;11.93;4.05;;;;;;;-0.43;79.46;101660.42;1631920;87;27486;-76
2022/01/23 01:44:15;;;;;;;13.18;4.15;;;;;;;-0.44;79.37;101661.81;1632464;87;25928;-77
2022/01/23 01:46:44;;;;;;;13.00;5.33;;;;;;;-0.43;79.44;101655.16;1630136;87;25310;-76
2022/01/23 01:49:11;;;;;;;8.98;4.25;;;;;;;-0.43;79.32;101651.22;1632449;86;25931;-76
2022/01/23 01:51:39;;;;;;;9.60;3.47;;;;;;;-0.43;79.41;101647.27;1632281;87;26121;-76
2022/01/23 01:54:15;;;;;;;13.48;4.28;;;;;;;-0.45;79.33;101642.53;1631864;87;28761;-76
2022/01/23 01:56:49;;;;;;;13.83;4.85;;;;;;;-0.45;79.08;101647.80;1631881;87;25926;-76
2022/01/23 02:10:07;;;;;;;10.10;4.72;;;;;;;-0.46;79.17;101654.48;1632328;86;25907;-76
2022/01/23 02:18:12;;;;;;;14.75;4.83;;;;;;;-0.46;79.16;101653.16;1551894;92;25940;-76
2022/01/23 02:23:41;;;;;;;10.32;3.60;;;;;;;-0.47;79.24;101640.47;1613086;87;25899;-75
2022/01/23 02:50:46;;;;;;;9.88;4.03;;;;;;;-0.44;79.63;101665.76;1642649;85;25926;-76
2022/01/23 02:55:49;;;;;;;11.30;3.62;;;;;;;-0.43;79.61;101664.37;1643044;87;26255;-76
2022/01/23 02:58:18;;;;;;;13.60;4.20;;;;;;;-0.44;79.62;101678.45;1643260;87;25855;-77
2022/01/23 03:00:51;;;;;;;11.53;4.15;;;;;;;-0.44;79.62;101678.92;1643068;85;28022;-76
2022/01/23 03:03:39;;;;;;;11.30;4.85;;;;;;;-0.45;79.70;101683.82;1642797;87;25916;-76
2022/01/23 03:09:20;;;;;;;8.48;3.87;;;;;;;-0.44;79.62;101690.77;1642941;87;26310;-76
2022/01/23 03:14:01;;;;;;;9.45;4.12;;;;;;;-0.40;79.72;101688.32;1606994;86;27479;-76
2022/01/23 03:30:21;;;;;;;8.13;3.30;;;;;;;-0.33;79.62;101722.57;1670290;84;26194;-77
2022/01/23 03:32:48;;;;;;;9.30;3.70;;;;;;;-0.31;79.68;101715.42;1670177;85;25791;-76
2022/01/23 03:35:16;;;;;;;11.22;4.33;;;;;;;-0.31;79.58;101728.59;1670537;85;25864;-76
2022/01/23 03:37:43;;;;;;;14.85;4.17;;;;;;;-0.35;79.56;101721.81;1670554;85;25584;-76
2022/01/23 03:40:12;;;;;;;13.48;4.10;;;;;;;-0.29;79.63;101728.03;1670413;84;27467;-76
2022/01/23 03:42:41;;;;;;;11.15;3.70;;;;;;;-0.28;79.51;101730.56;1670234;85;26559;-76
2022/01/23 03:47:39;;;;;;;12.28;4.08;;;;;;;-0.26;79.50;101735.77;1670277;85;26647;-76
2022/01/23 03:50:10;;;;;;;9.98;3.45;;;;;;;-0.24;79.53;101739.15;1670472;84;25893;-75
2022/01/23 03:52:42;;;;;;;7.53;4.20;;;;;;;-0.23;79.52;101734.25;1670206;85;27488;-75
2022/01/23 03:55:09;;;;;;;8.35;3.62;;;;;;;-0.23;79.42;101742.14;1670239;85;25762;-76
2022/01/23 03:57:36;;;;;;;11.88;3.35;;;;;;;-0.24;79.43;101741.32;1670433;85;25841;-76
2022/01/23 04:00:06;;;;;;;7.20;2.80;;;;;;;-0.24;79.45;101736.05;1670317;84;25853;-75
2022/01/23 04:02:34;;;;;;;10.82;3.65;;;;;;;-0.25;79.41;101733.48;1669570;85;26623;-77
2022/01/23 04:05:00;;;;;;;7.15;3.55;;;;;;;-0.24;79.46;101745.27;1670544;85;27472;-77
2022/01/23 04:07:28;;;;;;;11.10;3.67;;;;;;;-0.21;79.45;101758.23;1670338;85;26464;-76
2022/01/23 04:09:55;;;;;;;12.05;3.90;;;;;;;-0.21;79.49;101758.70;1670315;84;25856;-77
2022/01/23 04:12:44;;;;;;;7.92;3.65;;;;;;;-0.20;79.50;101763.89;1670339;85;25843;-76
2022/01/23 04:15:17;;;;;;;8.53;3.62;;;;;;;-0.18;79.40;101763.80;1668172;85;25797;-76
2022/01/23 04:20:35;;;;;;;7.75;3.17;;;;;;;-0.19;79.44;101776.56;1670060;84;25908;-76
2022/01/23 04:33:57;;;;;;;8.38;3.90;;;;;;;-0.23;79.36;101782.48;1670157;85;25851;-77
2022/01/23 04:48:30;;;;;;;9.75;3.77;;;;;;;-0.31;79.75;101783.88;1670469;85;25880;-77
2022/01/23 05:00:51;;;;;;;11.28;3.33;;;;;;;-0.32;79.93;101766.40;1670254;84;26293;-76
2022/01/23 05:06:07;;;;;;;5.92;3.25;;;;;;;-0.31;79.88;101770.25;1666017;85;25842;-76
2022/01/23 05:08:41;;;;;;;7.10;2.83;;;;;;;-0.31;79.90;101779.46;1669621;85;25580;-75
2022/01/23 05:11:12;;;;;;;;;;;;;;;-0.32;79.94;101786.97;1663035;85;27486;-76
2022/01/23 05:13:41;;;;;;;11.35;4.17;;;;;;;-0.32;80.00;101796.67;1668671;84;25915;-76
2022/01/23 05:16:10;;;;;;;7.30;3.50;;;;;;;-0.34;80.05;101807.76;1670134;85;25971;-77
2022/01/23 05:18:39;;;;;;;8.88;3.25;;;;;;;-0.32;80.07;101805.39;1670372;85;25905;-76
2022/01/23 05:23:39;;;;;;;8.53;3.77;;;;;;;-0.32;80.08;101818.55;1670259;85;26990;-76
2022/01/23 05:26:06;;;;;;;7.62;3.25;;;;;;;-0.31;80.15;101823.36;1670516;85;25780;-76
2022/01/23 05:28:32;;;;;;;9.70;4.08;;;;;;;-0.32;80.14;101823.00;1670622;85;25821;-75
2022/01/23 05:30:58;;;;;;;13.48;4.00;;;;;;;-0.32;80.21;101824.31;1670500;84;26544;-76
2022/01/23 05:33:24;;;;;;;11.43;4.67;;;;;;;-0.35;80.35;101827.11;1670492;85;26596;-75
2022/01/23 05:35:51;;;;;;;8.93;3.58;;;;;;;-0.35;80.34;101821.38;1670684;85;26801;-76
2022/01/23 05:38:18;;;;;;;11.83;3.58;;;;;;;-0.34;80.39;101827.01;1670369;85;25932;-76
2022/01/23 05:40:44;;;;;;;12.20;4.58;;;;;;;-0.32;80.41;101832.21;1670462;84;26456;-76
2022/01/23 05:43:11;;;;;;;11.73;4.75;;;;;;;-0.32;80.41;101826.95;1670537;85;26108;-77
2022/01/23 05:45:41;;;;;;;11.57;4.42;;;;;;;-0.32;80.45;101829.09;1670446;85;25793;-76
2022/01/23 05:48:08;;;;;;;8.83;3.65;;;;;;;-0.32;80.57;101828.27;1670520;85;28278;-77
2022/01/23 05:50:36;;;;;;;8.85;4.30;;;;;;;-0.34;80.57;101825.70;1616910;85;26600;-76
2022/01/23 05:53:21;;;;;;;7.72;3.37;;;;;;;-0.33;80.69;101831.36;1667977;85;25858;-76
2022/01/23 05:55:49;;;;;;;12.05;3.62;;;;;;;-0.35;80.77;101825.33;1642621;84;25761;-76
2022/01/23 05:58:34;;;;;;;11.03;3.67;;;;;;;-0.36;80.83;101834.61;1669418;84;26466;-76
2022/01/23 06:01:00;;;;;;;10.35;4.22;;;;;;;-0.36;80.90;101843.36;1670056;84;27615;-75
2022/01/23 06:03:26;;;;;;;11.95;4.30;;;;;;;-0.36;80.98;101839.41;1669964;85;25747;-76
2022/01/23 06:05:54;;;;;;;8.40;4.15;;;;;;;-0.37;80.95;101829.84;1668668;85;25301;-75
2022/01/23 06:08:24;;;;;;;13.35;4.40;;;;;;;-0.37;81.10;101837.73;1670371;85;25920;-76
2022/01/23 06:10:56;;;;;;;9.55;4.03;;;;;;;-0.39;81.19;101836.97;1670468;84;25978;-76
2022/01/23 06:13:34;;;;;;;8.78;4.33;;;;;;;-0.38;81.16;101845.23;1669776;85;27567;-76
2022/01/23 06:16:01;;;;;;;8.33;3.50;;;;;;;-0.39;81.34;101850.13;1670282;85;25754;-76
2022/01/23 06:18:28;;;;;;;9.63;3.98;;;;;;;-0.38;81.42;101868.06;1670171;85;25993;-76
2022/01/23 06:21:18;;;;;;;9.75;4.20;;;;;;;-0.39;81.36;101859.34;1670568;84;26571;-76
2022/01/23 06:23:44;;;;;;;8.20;3.75;;;;;;;-0.37;81.38;101859.25;1633456;85;25930;-76
2022/01/23 06:26:17;;;;;;;8.95;4.25;;;;;;;-0.34;81.44;101859.09;1669157;85;27486;-76
2022/01/23 06:29:03;;;;;;;8.50;3.55;;;;;;;-0.34;81.42;101869.12;1670688;84;26547;-76
2022/01/23 06:31:29;;;;;;;12.65;4.15;;;;;;;-0.32;81.32;101865.94;1644873;85;25906;-76
2022/01/23 06:33:58;;;;;;;9.13;4.03;;;;;;;-0.30;81.29;101864.56;1670317;85;25858;-76
2022/01/23 06:36:24;;;;;;;9.98;4.00;;;;;;;-0.31;81.37;101870.75;1670804;85;25936;-75
2022/01/23 06:38:50;;;;;;;12.75;4.08;;;;;;;-0.32;81.47;101879.59;1670765;84;28443;-76
2022/01/23 06:41:17;;;;;;;9.45;4.20;;;;;;;-0.31;81.45;101872.92;1644407;85;25929;-78
2022/01/23 06:44:05;;;;;;;10.90;4.37;;;;;;;-0.28;81.45;101878.48;1669609;85;25354;-75
2022/01/23 06:46:33;;;;;;;9.23;3.98;;;;;;;-0.29;81.48;101881.58;1670192;85;26549;-76
2022/01/23 06:49:02;;;;;;;10.98;4.83;;;;;;;-0.29;81.45;101890.80;1670781;85;25295;-77
2022/01/23 06:51:29;;;;;;;8.73;4.15;;;;;;;-0.27;81.49;101897.28;1670312;84;27468;-76
2022/01/23 06:53:55;;;;;;;14.80;5.00;;;;;;;-0.24;81.54;101899.29;1670491;84;25960;-76
2022/01/23 06:56:22;;;;;;;10.63;4.28;;;;;;;-0.24;81.55;101905.02;1670610;85;26655;-76
2022/01/23 06:58:49;;;;;;;11.83;4.53;;;;;;;-0.22;81.76;101916.31;1670739;85;26589;-76
2022/01/23 07:01:15;;;;;;;8.58;3.70;;;;;;;-0.23;81.76;101922.03;1670203;84;25887;-76
2022/01/23 07:03:43;;;;;;;11.28;5.00;;;;;;;-0.19;81.76;101929.28;1669769;84;27444;-76
2022/01/23 07:06:30;;;;;;;12.50;4.08;;;;;;;-0.17;81.77;101927.45;1669314;85;25830;-76
2022/01/23 07:09:01;;;;;;;11.85;3.80;;;;;;;-0.14;81.85;101931.20;1667972;85;26003;-76
2022/01/23 07:11:29;;;;;;;8.40;4.55;;;;;;;-0.14;81.90;101938.64;1669595;84;25845;-76
2022/01/23 07:14:14;;;;;;;11.75;5.35;;;;;;;-0.15;81.88;101946.64;1669943;85;25816;-77
2022/01/23 07:16:58;;;;;;;12.60;4.37;;;;;;;-0.16;81.94;101947.09;1670375;85;27519;-76
2022/01/23 07:19:26;;;;;;;15.40;5.28;;;;;;;-0.15;82.08;101950.59;1668469;84;25933;-76
2022/01/23 07:21:55;;;;;;;9.43;4.78;;;;;;;-0.13;82.19;101952.67;1669886;84;25855;-75
2022/01/23 07:24:21;;;;;;;10.60;5.22;;;;;;;-0.13;82.16;101948.72;1670891;85;25847;-76
2022/01/23 07:26:47;;;;;;;9.80;4.92;;;;;;;-0.11;82.18;101950.30;1670500;85;25736;-77
2022/01/23 07:29:15;;;;;;;16.48;5.65;;;;;;;-0.11;82.19;101951.62;1644847;84;28366;-76
2022/01/23 07:31:55;;;;;;;11.48;4.22;;;;;;;-0.06;82.28;101951.36;1670157;85;26065;-76
2022/01/23 07:34:13;;;;;;;8.57;4.50;;;;;;;-0.03;82.25;101956.48;1668876;85;26542;-76
2022/01/23 07:36:40;;;;;;;9.75;4.83;;;;;;;-0.01;82.26;101966.00;1670815;84;26778;-77
2022/01/23 07:39:23;;;;;;;13.30;4.65;;;;;;;0.01;82.27;101968.53;1668302;84;25758;-75
2022/01/23 07:41:51;;;;;;;12.18;4.58;;;;;;;0.06;82.24;101976.19;1644303;85;27492;-76
2022/01/23 07:44:25;;;;;;;11.68;4.83;;;;;;;0.09;82.20;101982.12;1666189;84;25778;-76
2022/01/23 07:47:10;;;;;;;12.05;4.92;;;;;;;0.09;82.21;101981.26;1670487;85;25826;-76
2022/01/23 07:49:46;;;;;;;12.47;4.70;;;;;;;0.12;82.17;101986.37;1668277;84;25857;-76
2022/01/23 07:52:20;;;;;;;9.85;4.60;;;;;;;0.14;82.21;101995.03;1669512;85;25542;-76
2022/01/23 07:54:48;;;;;;;8.03;4.28;;;;;;;0.19;82.18;101993.86;1666807;84;27552;-76
2022/01/23 07:57:19;;;;;;;11.90;4.58;;;;;;;0.21;82.00;101993.30;1668006;85;25856;-78
2022/01/23 07:59:50;;;;;;;13.30;4.87;;;;;;;0.24;82.16;101993.56;1669158;84;25837;-78
2022/01/23 08:02:22;;;;;;;11.22;4.60;;;;;;;0.27;82.08;101996.05;1666559;85;26700;-77
2022/01/23 08:05:09;;;;;;;13.85;5.37;;;;;;;0.33;82.02;102008.87;1634272;87;25934;-78
2022/01/23 08:07:36;;;;;;;15.53;5.35;;;;;;;0.34;82.01;102018.48;1654472;86;27458;-78
2022/01/23 08:10:15;;;;;;;10.43;5.30;;;;;;;0.36;81.87;102015.30;1641839;84;26474;-79
2022/01/23 08:12:41;;;;;;;11.50;4.78;;;;;;;0.39;81.92;102018.59;1663506;85;25906;-78
2022/01/23 08:15:09;;;;;;;18.45;6.42;;;;;;;0.43;81.71;102013.98;1663457;86;26573;-77
2022/01/23 08:17:35;;;;;;;8.93;4.95;;;;;;;0.46;81.76;102016.00;1666156;85;25303;-78
2022/01/23 08:20:04;;;;;;;12.98;4.62;;;;;;;0.48;81.70;102019.86;1670351;84;28285;-78
2022/01/23 08:22:31;;;;;;;13.32;5.00;;;;;;;0.52;81.66;102014.32;1670195;85;25821;-77
2022/01/23 08:24:57;;;;;;;16.12;4.58;;;;;;;0.54;81.53;102017.72;1670467;84;26139;-76
2022/01/23 08:27:25;;;;;;;11.20;5.17;;;;;;;0.54;81.42;102013.77;1670354;85;26578;-75
2022/01/23 08:29:53;;;;;;;13.62;5.10;;;;;;;0.55;81.46;102015.48;1644914;85;44538;-76
2022/01/23 08:32:19;;;;;;;14.50;5.62;;;;;;;0.58;81.51;102016.59;1670318;85;27460;-76
2022/01/23 08:34:46;;;;;;;12.20;5.53;;;;;;;0.61;81.62;102020.39;1670386;85;25950;-76
2022/01/23 08:37:13;;;;;;;13.48;5.28;;;;;;;0.61;81.53;102023.48;1670391;85;25830;-77
2022/01/23 08:39:41;;;;;;;13.20;5.62;;;;;;;0.61;81.58;102034.03;1670546;84;25975;-76
2022/01/23 08:42:15;;;;;;;13.68;4.85;;;;;;;0.59;81.52;102034.13;1669536;85;25856;-76
2022/01/23 08:44:43;;;;;;;13.13;5.55;;;;;;;0.54;81.63;102042.77;1670384;85;27488;-76
2022/01/23 08:47:09;;;;;;;11.93;5.58;;;;;;;0.55;81.78;102044.48;1670480;85;26759;-76
2022/01/23 08:49:44;;;;;;;12.98;6.78;;;;;;;0.59;81.77;102057.86;1670450;84;25859;-76
2022/01/23 08:52:05;;;;;;;12.30;5.67;;;;;;;0.60;81.62;102063.50;1669490;85;26438;-76
2022/01/23 08:54:31;;;;;;;11.18;5.40;;;;;;;0.60;81.63;102072.72;1670621;85;25882;-75
2022/01/23 08:56:58;;;;;;;15.10;6.03;;;;;;;0.58;81.43;102073.75;1670819;85;27452;-76
2022/01/23 08:59:25;;;;;;;13.03;5.95;;;;;;;0.58;81.64;102081.20;1670281;84;25790;-76
2022/01/23 09:01:51;;;;;;;18.82;7.12;;;;;;;0.58;81.50;102082.97;1670250;85;25862;-76
2022/01/23 09:04:18;;;;;;;14.25;5.50;;;;;;;0.58;81.72;102079.88;1670203;85;25855;-76
2022/01/23 09:06:46;;;;;;;14.60;5.95;;;;;;;0.60;81.58;102089.01;1670265;85;25826;-76
2022/01/23 09:09:18;;;;;;;17.07;6.28;;;;;;;0.60;81.67;102089.01;1670383;84;27453;-77
2022/01/23 09:11:58;;;;;;;13.43;6.17;;;;;;;0.60;81.60;102092.50;1669940;84;25833;-76
2022/01/23 09:14:21;;;;;;;12.95;6.03;;;;;;;0.61;81.57;102100.81;1669662;85;26687;-76
2022/01/23 09:16:49;;;;;;;12.95;5.80;;;;;;;0.62;81.73;102097.71;1670210;85;25786;-76
2022/01/23 09:19:18;;;;;;;15.23;6.87;;;;;;;0.64;81.73;102097.16;1670695;84;25753;-76
2022/01/23 09:21:46;;;;;;;14.63;6.55;;;;;;;0.64;81.68;102098.47;1670555;84;27454;-78
2022/01/23 09:24:13;;;;;;;15.23;6.28;;;;;;;0.65;81.71;102101.02;1670410;85;25814;-78
2022/01/23 09:26:39;;;;;;;22.85;6.28;;;;;;;0.67;81.66;102093.00;1670739;84;25734;-78
2022/01/23 09:29:18;;;;;;;13.45;5.65;;;;;;;0.68;81.42;102098.19;1670247;84;25818;-78
2022/01/23 09:31:52;;;;;;;13.95;6.20;;;;;;;0.71;81.72;102095.39;1670808;85;25877;-78
2022/01/23 09:34:22;;;;;;;13.38;5.58;;;;;;;0.77;81.42;102100.30;1670535;85;27532;-78
2022/01/23 09:36:49;;;;;;;14.87;6.17;;;;;;;0.80;81.51;102103.23;1670418;83;25833;-78
2022/01/23 09:39:16;;;;;;;8.63;5.47;;;;;;;0.84;81.45;102103.44;1670308;84;25821;-77
2022/01/23 09:41:50;;;;;;;18.55;5.92;;;;;;;0.87;81.27;102105.06;1670170;85;25956;-78
2022/01/23 09:44:20;;;;;;;12.85;6.40;;;;;;;0.88;81.13;102104.96;1670634;85;26527;-76
2022/01/23 09:46:48;;;;;;;13.62;6.20;;;;;;;0.87;80.81;102102.42;1670698;85;27674;-76
2022/01/23 09:49:16;;;;;;;14.05;6.87;;;;;;;0.91;81.04;102105.26;1670268;84;25836;-76
2022/01/23 09:51:46;;;;;;;14.70;6.70;;;;;;;0.96;80.55;102104.08;1670244;85;25836;-76
2022/01/23 09:54:15;;;;;;;16.40;7.55;;;;;;;1.03;80.74;102101.44;1670663;85;26516;-76
2022/01/23 09:56:43;;;;;;;16.73;6.78;;;;;;;1.12;80.80;102097.41;1670469;85;25946;-76
2022/01/23 09:59:13;;;;;;;13.53;6.50;;;;;;;1.15;80.43;102092.83;1670664;85;28057;-77
2022/01/23 10:01:42;;;;;;;15.55;7.22;;;;;;;1.20;80.02;102092.06;1670109;85;26473;-76
2022/01/23 10:04:10;;;;;;;15.60;6.42;;;;;;;1.25;80.06;102095.75;1670435;85;25855;-75
2022/01/23 10:06:36;;;;;;;14.75;6.08;;;;;;;1.28;79.83;102091.63;1670408;85;25859;-76
2022/01/23 10:09:07;;;;;;;12.88;6.40;;;;;;;1.29;79.69;102091.53;1670620;85;25797;-76
2022/01/23 10:11:39;;;;;;;11.00;6.22;;;;;;;1.30;79.50;102093.70;1670412;84;27454;-76
2022/01/23 10:14:03;;;;;;;14.20;6.20;;;;;;;1.31;79.40;102091.42;1670082;85;25878;-76
2022/01/23 10:16:31;;;;;;;14.73;7.15;;;;;;;1.33;79.57;102095.68;1670454;85;26427;-77
2022/01/23 10:18:59;;;;;;;14.25;6.50;;;;;;;1.35;79.30;102100.86;1645466;85;26697;-76
2022/01/23 10:21:25;;;;;;;11.40;6.28;;;;;;;1.37;79.03;102101.16;1670582;84;25848;-78
2022/01/23 10:23:53;;;;;;;11.97;6.95;;;;;;;1.35;78.89;102091.62;1670448;85;28267;-76
2022/01/23 10:26:58;;;;;;;14.40;6.75;;;;;;;1.37;78.91;102095.02;1670562;85;25774;-77
2022/01/23 10:29:25;;;;;;;15.72;7.15;;;;;;;1.32;78.50;102094.00;1668837;84;25328;-76
2022/01/23 10:32:21;;;;;;;12.95;6.92;;;;;;;1.29;78.40;102095.48;1670419;85;25837;-75
2022/01/23 10:35:00;;;;;;;12.07;6.20;;;;;;;1.30;78.50;102102.94;1670746;85;25892;-76
2022/01/23 10:37:37;;;;;;;13.88;6.75;;;;;;;1.31;78.34;102096.70;1670678;85;28309;-76
2022/01/23 10:40:11;;;;;;;14.80;6.70;;;;;;;1.33;78.69;102107.55;1670538;84;25889;-76
2022/01/23 10:48:27;;;;;;;13.35;6.58;;;;;;;1.41;78.14;102098.70;1670765;85;25743;-76
2022/01/23 10:50:45;;;;;;;15.53;6.45;;;;;;;1.42;78.02;102101.73;1668824;84;28305;-76
2022/01/23 10:53:11;;;;;;;13.15;6.45;;;;;;;1.44;78.12;102105.59;1670304;85;26669;-77
2022/01/23 10:55:38;;;;;;;17.50;8.13;;;;;;;1.46;78.26;102099.75;1670574;85;25873;-76
2022/01/23 10:58:09;;;;;;;16.45;7.58;;;;;;;1.50;77.97;102112.68;1670494;85;26577;-75
2022/01/23 11:00:39;;;;;;;15.75;7.28;;;;;;;1.51;78.05;102106.94;1667709;84;25962;-76
2022/01/23 11:03:22;;;;;;;14.95;6.65;;;;;;;1.52;77.79;102109.48;1670712;84;27478;-76
2022/01/23 11:05:51;;;;;;;16.55;6.83;;;;;;;1.55;77.65;102113.73;1670322;85;25815;-76
2022/01/23 11:08:31;;;;;;;10.78;5.58;;;;;;;1.55;77.53;102112.41;1670512;85;26196;-76
2022/01/23 11:11:08;;;;;;;14.53;6.45;;;;;;;1.56;77.52;102115.44;1670498;84;26395;-76
2022/01/23 11:19:39;;;;;;;13.00;7.15;;;;;;;1.55;77.01;102120.33;1666753;84;25419;-77
2022/01/23 11:22:00;;;;;;;16.17;8.03;;;;;;;1.52;77.20;102118.72;1666526;85;25820;-75
2022/01/23 11:24:42;;;;;;;14.25;6.12;;;;;;;1.52;77.40;102124.00;1670768;85;26484;-77
2022/01/23 11:27:08;;;;;;;13.48;6.70;;;;;;;1.49;77.07;102114.95;1670334;85;26205;-76
2022/01/23 11:29:34;;;;;;;14.10;7.12;;;;;;;1.48;77.24;102121.17;1670773;84;27521;-75
2022/01/23 11:32:01;;;;;;;13.90;7.83;;;;;;;1.47;76.96;102113.34;1670182;84;25916;-74
2022/01/23 11:34:30;;;;;;;14.60;7.22;;;;;;;1.47;76.96;102121.27;1670679;85;25880;-76
2022/01/23 11:36:56;;;;;;;12.63;7.22;;;;;;;1.49;77.32;102116.28;1670349;85;26489;-75
2022/01/23 11:39:42;;;;;;;11.18;6.00;;;;;;;1.53;77.49;102114.30;1670393;84;25716;-75
2022/01/23 11:53:49;;;;;;;13.32;6.78;;;;;;;1.72;77.02;102124.13;1670744;85;25818;-74
2022/01/23 11:56:42;;;;;;;11.95;5.83;;;;;;;1.74;77.00;102126.20;1670710;85;28498;-76
2022/01/23 11:59:26;;;;;;;9.53;5.25;;;;;;;1.77;76.58;102126.48;1667840;84;25947;-75
2022/01/23 12:02:25;;;;;;;18.05;6.53;;;;;;;1.72;75.74;102128.09;1670457;85;25855;-75
2022/01/23 12:05:20;;;;;;;8.45;4.53;;;;;;;1.69;75.95;102123.47;1670446;85;26758;-76
2022/01/23 12:07:45;;;;;;;13.08;5.70;;;;;;;1.68;75.67;102123.08;1669313;85;26549;-76
2022/01/23 12:10:47;;;;;;;11.15;5.15;;;;;;;1.70;76.09;102124.69;1670812;84;27479;-75
2022/01/23 12:16:27;;;;;;;11.15;5.65;;;;;;;1.68;75.48;102115.16;1670962;85;25804;-75
2022/01/23 12:18:58;;;;;;;10.30;5.22;;;;;;;1.73;75.33;102117.06;1670615;85;25831;-75
2022/01/23 12:21:30;;;;;;;11.05;5.20;;;;;;;1.77;75.65;102122.06;1657751;85;25916;-75
2022/01/23 12:23:58;;;;;;;10.13;4.58;;;;;;;1.78;74.68;102131.67;1670558;85;28365;-75
2022/01/23 12:26:25;;;;;;;12.50;5.70;;;;;;;1.76;74.71;102124.31;1670330;85;25799;-75
2022/01/23 12:28:51;;;;;;;7.37;4.75;;;;;;;1.75;74.70;102128.37;1670593;85;26558;-75
2022/01/23 12:31:26;;;;;;;10.90;5.72;;;;;;;1.74;74.37;102131.48;1670685;84;25818;-75
2022/01/23 12:33:57;;;;;;;10.48;4.95;;;;;;;1.72;74.17;102137.33;1670638;85;25849;-75
2022/01/23 12:36:28;;;;;;;12.37;5.60;;;;;;;1.72;74.09;102145.72;1670689;85;28392;-75
2022/01/23 12:39:13;;;;;;;9.53;5.30;;;;;;;1.73;74.26;102154.89;1669775;84;25853;-75
2022/01/23 12:41:43;;;;;;;9.55;5.40;;;;;;;1.80;74.81;102160.16;1670002;85;25872;-75
2022/01/23 12:44:28;;;;;;;8.63;5.25;;;;;;;1.86;74.82;102168.21;1669027;84;26010;-74
2022/01/23 12:46:57;;;;;;;12.68;5.53;;;;;;;1.87;74.55;102172.53;1670394;85;25869;-75
2022/01/23 12:49:34;;;;;;;11.80;4.90;;;;;;;1.84;74.18;102180.17;1670551;84;27448;-75
2022/01/23 12:52:12;;;;;;;10.13;5.40;;;;;;;1.81;74.16;102175.55;1670179;85;25882;-76
2022/01/23 12:54:57;;;;;;;12.70;6.40;;;;;;;1.76;73.73;102185.53;1670661;85;25791;-76
2022/01/23 12:57:41;;;;;;;9.93;4.97;;;;;;;1.71;74.01;102182.34;1670473;85;26212;-76
2022/01/23 13:00:09;;;;;;;9.50;5.25;;;;;;;1.71;74.12;102180.52;1669220;84;25866;-76
2022/01/23 13:02:43;;;;;;;9.83;4.80;;;;;;;1.70;73.41;102188.55;1669868;85;27705;-76
2022/01/23 13:05:05;;;;;;;10.40;4.80;;;;;;;1.67;73.00;102188.75;1669540;85;25984;-75
2022/01/23 13:07:42;;;;;;;10.75;5.03;;;;;;;1.63;72.89;102195.98;1670533;85;25846;-76
2022/01/23 13:11:22;;;;;;;9.85;4.15;;;;;;;1.62;73.06;102194.77;1669184;84;26519;-76
2022/01/23 13:15:25;;;;;;;8.60;4.45;;;;;;;1.62;73.03;102206.19;1670238;85;27452;-77
2022/01/23 13:18:12;;;;;;;10.55;4.17;;;;;;;1.66;72.49;102207.70;1668848;85;25778;-76
2022/01/23 13:31:59;;;;;;;9.80;5.17;;;;;;;1.67;73.10;102219.95;1643228;86;25951;-76
2022/01/23 13:34:43;;;;;;;10.72;5.47;;;;;;;1.66;73.01;102226.19;1643298;87;25853;-76
2022/01/23 13:37:13;;;;;;;11.93;6.62;;;;;;;1.65;72.93;102225.80;1643281;87;25781;-77
2022/01/23 13:39:50;;;;;;;10.43;5.87;;;;;;;1.62;73.16;102224.67;1643304;85;26733;-76
2022/01/23 13:42:53;;;;;;;10.48;5.85;;;;;;;1.62;73.43;102226.45;1642595;86;28990;-76
2022/01/23 13:57:33;;;;;;;9.15;5.17;;;;;;;1.49;73.48;102225.86;1643150;86;25785;-75
2022/01/23 14:02:39;;;;;;;9.83;4.60;;;;;;;1.44;72.80;102225.27;1643257;87;25807;-75
2022/01/23 14:05:18;;;;;;;10.10;5.12;;;;;;;1.43;72.35;102227.51;1643402;87;25820;-76
2022/01/23 14:07:55;;;;;;;10.60;5.65;;;;;;;1.39;72.56;102222.52;1643341;86;25380;-76
2022/01/23 14:10:35;;;;;;;11.00;5.92;;;;;;;1.38;72.64;102226.95;1643399;85;27487;-76
2022/01/23 14:13:08;;;;;;;10.63;5.30;;;;;;;1.39;72.76;102229.13;1642975;87;25926;-76
2022/01/23 14:15:38;;;;;;;10.88;5.37;;;;;;;1.37;72.57;102233.15;1643721;85;25786;-76
2022/01/23 14:18:09;;;;;;;13.38;5.30;;;;;;;1.36;72.80;102238.06;1642995;87;25814;-76
2022/01/23 14:20:42;;;;;;;10.35;4.72;;;;;;;1.38;72.79;102239.28;1643400;85;25955;-76
2022/01/23 14:23:20;;;;;;;12.00;6.25;;;;;;;1.39;72.62;102235.23;1670522;85;27478;-76
2022/01/23 14:25:51;;;;;;;11.08;5.03;;;;;;;1.36;72.40;102239.39;1670337;85;25530;-76
2022/01/23 14:28:27;;;;;;;12.20;6.80;;;;;;;1.35;72.03;102238.12;1670995;85;26576;-76
2022/01/23 14:30:59;;;;;;;10.40;5.08;;;;;;;1.30;72.25;102241.52;1669091;84;26429;-76
2022/01/23 14:33:35;;;;;;;12.45;6.20;;;;;;;1.26;72.24;102240.00;1670571;85;25958;-76
2022/01/23 14:36:27;;;;;;;11.38;5.55;;;;;;;1.22;72.01;102245.91;1670903;85;27456;-77
2022/01/23 14:38:58;;;;;;;14.63;5.72;;;;;;;1.20;72.00;102245.59;1670202;84;25772;-76
2022/01/23 14:41:28;;;;;;;10.00;5.60;;;;;;;1.16;71.81;102252.85;1670063;84;25845;-76
2022/01/23 14:43:54;;;;;;;12.82;5.12;;;;;;;1.14;72.06;102256.51;1670608;85;25858;-76
2022/01/23 14:46:22;;;;;;;14.30;4.87;;;;;;;1.14;72.24;102265.28;1670878;85;26002;-76
2022/01/23 14:48:50;;;;;;;12.30;4.87;;;;;;;1.12;72.16;102250.00;1670532;85;27807;-76